sensor_id;sensor_type;location;lat;lon;timestamp;P1;durP1;ratioP1;P2;durP2;ratioP2
9048;SDS011;4559;47.252;9.592;2022-11-15T00:00:03;2.83;;;2.25;;
9048;SDS011;4559;47.252;9.592;2022-11-15T00:02:28;3.30;;;2.30;;
9048;SDS011;4559;47.252;9.592;2022-11-15T00:04:54;2.25;;;2.00;;
9048;SDS011;4559;47.252;9.592;2022-11-15T00:07:20;2.20;;;1.97;;
9048;SDS011;4559;47.252;9.592;2022-11-15T00:09:45;3.40;;;2.57;;
9048;SDS011;4559;47.252;9.592;2022-11-15T00:12:11;3.80;;;2.80;;
9048;SDS011;4559;47.252;9.592;2022-11-15T00:14:36;4.15;;;2.35;;
9048;SDS011;4559;47.252;9.592;2022-11-15T00:17:02;3.80;;;2.20;;
9048;SDS011;4559;47.252;9.592;2022-11-15T00:19:27;3.97;;;2.57;;
9048;SDS011;4559;47.252;9.592;2022-11-15T00:21:53;3.33;;;2.20;;
9048;SDS011;4559;47.252;9.592;2022-11-15T00:24:18;2.90;;;2.22;;
9048;SDS011;4559;47.252;9.592;2022-11-15T00:26:44;3.25;;;2.55;;
9048;SDS011;4559;47.252;9.592;2022-11-15T00:29:10;4.10;;;2.53;;
9048;SDS011;4559;47.252;9.592;2022-11-15T00:31:35;4.93;;;2.70;;
9048;SDS011;4559;47.252;9.592;2022-11-15T00:34:01;3.70;;;2.30;;
9048;SDS011;4559;47.252;9.592;2022-11-15T00:36:26;4.05;;;2.63;;
9048;SDS011;4559;47.252;9.592;2022-11-15T00:38:52;3.00;;;2.30;;
9048;SDS011;4559;47.252;9.592;2022-11-15T00:41:17;6.30;;;3.07;;
9048;SDS011;4559;47.252;9.592;2022-11-15T00:43:43;4.70;;;2.33;;
9048;SDS011;4559;47.252;9.592;2022-11-15T00:46:09;3.72;;;3.08;;
9048;SDS011;4559;47.252;9.592;2022-11-15T00:48:35;3.60;;;2.25;;
9048;SDS011;4559;47.252;9.592;2022-11-15T00:51:01;5.20;;;2.88;;
9048;SDS011;4559;47.252;9.592;2022-11-15T00:53:26;2.67;;;2.47;;
9048;SDS011;4559;47.252;9.592;2022-11-15T00:55:52;4.10;;;2.37;;
9048;SDS011;4559;47.252;9.592;2022-11-15T00:58:18;3.20;;;2.40;;
9048;SDS011;4559;47.252;9.592;2022-11-15T01:00:43;3.50;;;2.67;;
9048;SDS011;4559;47.252;9.592;2022-11-15T01:03:09;4.68;;;2.58;;
9048;SDS011;4559;47.252;9.592;2022-11-15T01:05:36;3.60;;;2.30;;
9048;SDS011;4559;47.252;9.592;2022-11-15T01:08:03;4.80;;;2.50;;
9048;SDS011;4559;47.252;9.592;2022-11-15T01:10:29;4.10;;;2.63;;
9048;SDS011;4559;47.252;9.592;2022-11-15T01:12:54;2.78;;;2.13;;
9048;SDS011;4559;47.252;9.592;2022-11-15T01:15:20;3.60;;;2.72;;
9048;SDS011;4559;47.252;9.592;2022-11-15T01:17:45;3.47;;;2.63;;
9048;SDS011;4559;47.252;9.592;2022-11-15T01:20:11;3.60;;;2.10;;
9048;SDS011;4559;47.252;9.592;2022-11-15T01:22:37;2.58;;;2.15;;
9048;SDS011;4559;47.252;9.592;2022-11-15T01:25:02;4.73;;;2.00;;
9048;SDS011;4559;47.252;9.592;2022-11-15T01:27:28;2.90;;;2.20;;
9048;SDS011;4559;47.252;9.592;2022-11-15T01:29:54;2.77;;;2.40;;
9048;SDS011;4559;47.252;9.592;2022-11-15T01:32:19;2.25;;;2.00;;
9048;SDS011;4559;47.252;9.592;2022-11-15T01:34:45;3.15;;;2.20;;
9048;SDS011;4559;47.252;9.592;2022-11-15T01:37:10;3.27;;;2.30;;
9048;SDS011;4559;47.252;9.592;2022-11-15T01:39:36;4.20;;;2.50;;
9048;SDS011;4559;47.252;9.592;2022-11-15T01:42:01;2.88;;;2.00;;
9048;SDS011;4559;47.252;9.592;2022-11-15T01:46:56;3.95;;;2.17;;
9048;SDS011;4559;47.252;9.592;2022-11-15T01:49:24;4.47;;;2.40;;
9048;SDS011;4559;47.252;9.592;2022-11-15T01:51:52;2.70;;;2.45;;
9048;SDS011;4559;47.252;9.592;2022-11-15T01:54:19;2.75;;;1.98;;
9048;SDS011;4559;47.252;9.592;2022-11-15T01:56:48;3.00;;;2.00;;
9048;SDS011;4559;47.252;9.592;2022-11-15T01:59:19;3.35;;;1.90;;
9048;SDS011;4559;47.252;9.592;2022-11-15T02:01:45;2.93;;;1.93;;
9048;SDS011;4559;47.252;9.592;2022-11-15T02:04:13;2.65;;;2.22;;
9048;SDS011;4559;47.252;9.592;2022-11-15T02:06:45;3.63;;;2.40;;
9048;SDS011;4559;47.252;9.592;2022-11-15T02:09:13;2.70;;;2.10;;
9048;SDS011;4559;47.252;9.592;2022-11-15T02:11:39;2.72;;;2.35;;
9048;SDS011;4559;47.252;9.592;2022-11-15T02:14:04;2.05;;;1.73;;
9048;SDS011;4559;47.252;9.592;2022-11-15T02:19:47;2.60;;;2.20;;
9048;SDS011;4559;47.252;9.592;2022-11-15T02:33:38;3.40;;;2.20;;
9048;SDS011;4559;47.252;9.592;2022-11-15T02:39:16;4.07;;;2.43;;
9048;SDS011;4559;47.252;9.592;2022-11-15T02:41:57;2.92;;;2.03;;
9048;SDS011;4559;47.252;9.592;2022-11-15T02:44:38;4.03;;;1.90;;
9048;SDS011;4559;47.252;9.592;2022-11-15T02:47:09;3.50;;;2.50;;
9048;SDS011;4559;47.252;9.592;2022-11-15T02:49:44;3.27;;;2.40;;
9048;SDS011;4559;47.252;9.592;2022-11-15T02:52:16;3.00;;;2.20;;
9048;SDS011;4559;47.252;9.592;2022-11-15T02:54:43;2.92;;;1.83;;
9048;SDS011;4559;47.252;9.592;2022-11-15T02:57:18;3.45;;;1.60;;
9048;SDS011;4559;47.252;9.592;2022-11-15T03:00:01;2.22;;;1.80;;
9048;SDS011;4559;47.252;9.592;2022-11-15T03:05:35;1.65;;;1.52;;
9048;SDS011;4559;47.252;9.592;2022-11-15T03:16:09;5.18;;;2.28;;
9048;SDS011;4559;47.252;9.592;2022-11-15T03:18:45;2.03;;;1.83;;
9048;SDS011;4559;47.252;9.592;2022-11-15T03:21:17;1.55;;;1.45;;
9048;SDS011;4559;47.252;9.592;2022-11-15T03:23:46;2.20;;;1.70;;
9048;SDS011;4559;47.252;9.592;2022-11-15T03:26:13;2.47;;;1.92;;
9048;SDS011;4559;47.252;9.592;2022-11-15T03:28:50;1.83;;;1.60;;
9048;SDS011;4559;47.252;9.592;2022-11-15T03:31:18;2.25;;;1.50;;
9048;SDS011;4559;47.252;9.592;2022-11-15T03:34:10;3.10;;;1.90;;
9048;SDS011;4559;47.252;9.592;2022-11-15T03:36:53;2.15;;;1.73;;
9048;SDS011;4559;47.252;9.592;2022-11-15T03:39:19;2.58;;;2.17;;
9048;SDS011;4559;47.252;9.592;2022-11-15T03:44:54;5.72;;;1.98;;
9048;SDS011;4559;47.252;9.592;2022-11-15T03:48:02;2.17;;;1.67;;
9048;SDS011;4559;47.252;9.592;2022-11-15T03:50:24;2.42;;;1.65;;
9048;SDS011;4559;47.252;9.592;2022-11-15T03:52:50;1.80;;;1.65;;
9048;SDS011;4559;47.252;9.592;2022-11-15T03:55:19;1.80;;;1.70;;
9048;SDS011;4559;47.252;9.592;2022-11-15T03:57:47;2.25;;;1.60;;
9048;SDS011;4559;47.252;9.592;2022-11-15T04:00:15;3.10;;;1.70;;
9048;SDS011;4559;47.252;9.592;2022-11-15T04:02:41;1.60;;;1.40;;
9048;SDS011;4559;47.252;9.592;2022-11-15T04:05:06;2.03;;;1.40;;
9048;SDS011;4559;47.252;9.592;2022-11-15T04:07:32;4.53;;;2.00;;
9048;SDS011;4559;47.252;9.592;2022-11-15T04:09:58;3.87;;;1.77;;
9048;SDS011;4559;47.252;9.592;2022-11-15T04:12:33;2.25;;;1.70;;
9048;SDS011;4559;47.252;9.592;2022-11-15T04:15:07;1.80;;;1.60;;
9048;SDS011;4559;47.252;9.592;2022-11-15T04:17:44;2.85;;;2.10;;
9048;SDS011;4559;47.252;9.592;2022-11-15T04:20:15;3.60;;;1.73;;
9048;SDS011;4559;47.252;9.592;2022-11-15T04:23:05;3.08;;;1.80;;
9048;SDS011;4559;47.252;9.592;2022-11-15T04:25:52;3.10;;;1.73;;
9048;SDS011;4559;47.252;9.592;2022-11-15T04:28:19;2.22;;;1.70;;
9048;SDS011;4559;47.252;9.592;2022-11-15T04:30:45;2.65;;;1.73;;
9048;SDS011;4559;47.252;9.592;2022-11-15T04:33:11;2.63;;;1.60;;
9048;SDS011;4559;47.252;9.592;2022-11-15T04:35:37;4.30;;;1.70;;
9048;SDS011;4559;47.252;9.592;2022-11-15T04:38:04;2.67;;;1.60;;
9048;SDS011;4559;47.252;9.592;2022-11-15T04:40:32;3.03;;;2.03;;
9048;SDS011;4559;47.252;9.592;2022-11-15T04:42:58;2.60;;;1.57;;
9048;SDS011;4559;47.252;9.592;2022-11-15T04:45:23;1.67;;;1.50;;
9048;SDS011;4559;47.252;9.592;2022-11-15T04:47:49;2.87;;;2.20;;
9048;SDS011;4559;47.252;9.592;2022-11-15T04:50:15;3.03;;;1.53;;
9048;SDS011;4559;47.252;9.592;2022-11-15T04:52:51;2.80;;;1.85;;
9048;SDS011;4559;47.252;9.592;2022-11-15T04:55:18;3.85;;;2.30;;
9048;SDS011;4559;47.252;9.592;2022-11-15T04:57:44;3.03;;;1.63;;
9048;SDS011;4559;47.252;9.592;2022-11-15T05:00:11;2.83;;;1.88;;
9048;SDS011;4559;47.252;9.592;2022-11-15T05:02:40;2.13;;;1.75;;
9048;SDS011;4559;47.252;9.592;2022-11-15T05:05:24;2.88;;;2.10;;
9048;SDS011;4559;47.252;9.592;2022-11-15T05:07:50;4.90;;;3.05;;
9048;SDS011;4559;47.252;9.592;2022-11-15T05:10:16;5.10;;;3.27;;
9048;SDS011;4559;47.252;9.592;2022-11-15T05:12:42;9.10;;;3.15;;
9048;SDS011;4559;47.252;9.592;2022-11-15T05:15:07;4.90;;;2.40;;
9048;SDS011;4559;47.252;9.592;2022-11-15T05:17:33;4.00;;;1.90;;
9048;SDS011;4559;47.252;9.592;2022-11-15T05:19:59;1.95;;;1.75;;
9048;SDS011;4559;47.252;9.592;2022-11-15T05:22:25;4.32;;;2.25;;
9048;SDS011;4559;47.252;9.592;2022-11-15T05:24:51;1.88;;;1.67;;
9048;SDS011;4559;47.252;9.592;2022-11-15T05:27:17;2.53;;;2.03;;
9048;SDS011;4559;47.252;9.592;2022-11-15T05:29:42;2.73;;;2.30;;
9048;SDS011;4559;47.252;9.592;2022-11-15T05:32:08;2.23;;;2.03;;
9048;SDS011;4559;47.252;9.592;2022-11-15T05:34:36;4.53;;;2.40;;
9048;SDS011;4559;47.252;9.592;2022-11-15T05:37:02;3.70;;;2.23;;
9048;SDS011;4559;47.252;9.592;2022-11-15T05:39:28;3.22;;;2.10;;
9048;SDS011;4559;47.252;9.592;2022-11-15T05:42:15;2.55;;;1.90;;
9048;SDS011;4559;47.252;9.592;2022-11-15T05:44:41;3.13;;;2.00;;
9048;SDS011;4559;47.252;9.592;2022-11-15T05:47:12;3.60;;;2.00;;
9048;SDS011;4559;47.252;9.592;2022-11-15T05:49:44;3.20;;;2.05;;
9048;SDS011;4559;47.252;9.592;2022-11-15T05:52:13;4.93;;;2.10;;
9048;SDS011;4559;47.252;9.592;2022-11-15T05:54:41;2.53;;;1.80;;
9048;SDS011;4559;47.252;9.592;2022-11-15T05:57:07;2.07;;;1.70;;
9048;SDS011;4559;47.252;9.592;2022-11-15T05:59:33;3.42;;;1.98;;
9048;SDS011;4559;47.252;9.592;2022-11-15T06:02:00;2.60;;;2.00;;
9048;SDS011;4559;47.252;9.592;2022-11-15T06:04:25;2.28;;;1.83;;
9048;SDS011;4559;47.252;9.592;2022-11-15T06:06:51;5.40;;;2.00;;
9048;SDS011;4559;47.252;9.592;2022-11-15T06:09:17;2.38;;;2.05;;
9048;SDS011;4559;47.252;9.592;2022-11-15T06:11:42;3.30;;;2.00;;
9048;SDS011;4559;47.252;9.592;2022-11-15T06:14:08;2.57;;;1.50;;
9048;SDS011;4559;47.252;9.592;2022-11-15T06:16:33;3.20;;;2.13;;
9048;SDS011;4559;47.252;9.592;2022-11-15T06:18:59;3.00;;;2.03;;
9048;SDS011;4559;47.252;9.592;2022-11-15T06:21:25;3.78;;;2.85;;
9048;SDS011;4559;47.252;9.592;2022-11-15T06:23:52;4.78;;;2.55;;
9048;SDS011;4559;47.252;9.592;2022-11-15T06:26:18;4.82;;;3.20;;
9048;SDS011;4559;47.252;9.592;2022-11-15T06:28:44;3.05;;;2.35;;
9048;SDS011;4559;47.252;9.592;2022-11-15T06:31:10;3.53;;;2.70;;
9048;SDS011;4559;47.252;9.592;2022-11-15T06:33:36;7.17;;;3.53;;
9048;SDS011;4559;47.252;9.592;2022-11-15T06:36:04;4.45;;;2.55;;
9048;SDS011;4559;47.252;9.592;2022-11-15T06:38:31;4.88;;;2.03;;
9048;SDS011;4559;47.252;9.592;2022-11-15T06:41:07;3.13;;;2.20;;
9048;SDS011;4559;47.252;9.592;2022-11-15T06:43:33;3.28;;;2.30;;
9048;SDS011;4559;47.252;9.592;2022-11-15T06:46:00;2.63;;;2.35;;
9048;SDS011;4559;47.252;9.592;2022-11-15T06:48:27;4.10;;;2.10;;
9048;SDS011;4559;47.252;9.592;2022-11-15T06:50:55;2.13;;;1.90;;
9048;SDS011;4559;47.252;9.592;2022-11-15T06:53:22;2.20;;;1.98;;
9048;SDS011;4559;47.252;9.592;2022-11-15T06:55:48;3.35;;;2.50;;
9048;SDS011;4559;47.252;9.592;2022-11-15T06:58:14;2.88;;;2.40;;
9048;SDS011;4559;47.252;9.592;2022-11-15T07:00:40;3.00;;;2.33;;
9048;SDS011;4559;47.252;9.592;2022-11-15T07:03:06;2.88;;;2.30;;
9048;SDS011;4559;47.252;9.592;2022-11-15T07:05:31;5.27;;;1.97;;
9048;SDS011;4559;47.252;9.592;2022-11-15T07:07:57;6.70;;;2.37;;
9048;SDS011;4559;47.252;9.592;2022-11-15T07:10:23;2.73;;;1.70;;
9048;SDS011;4559;47.252;9.592;2022-11-15T07:12:53;2.23;;;1.80;;
9048;SDS011;4559;47.252;9.592;2022-11-15T07:15:20;6.70;;;2.30;;
9048;SDS011;4559;47.252;9.592;2022-11-15T07:17:48;4.63;;;2.13;;
9048;SDS011;4559;47.252;9.592;2022-11-15T07:20:14;3.42;;;2.50;;
9048;SDS011;4559;47.252;9.592;2022-11-15T07:22:40;10.90;;;4.68;;
9048;SDS011;4559;47.252;9.592;2022-11-15T07:25:06;4.75;;;2.95;;
9048;SDS011;4559;47.252;9.592;2022-11-15T07:27:33;4.70;;;2.13;;
9048;SDS011;4559;47.252;9.592;2022-11-15T07:29:58;4.65;;;2.90;;
9048;SDS011;4559;47.252;9.592;2022-11-15T07:32:24;4.15;;;2.60;;
9048;SDS011;4559;47.252;9.592;2022-11-15T07:34:50;6.03;;;3.00;;
9048;SDS011;4559;47.252;9.592;2022-11-15T07:37:16;3.88;;;2.40;;
9048;SDS011;4559;47.252;9.592;2022-11-15T07:39:42;3.83;;;2.65;;
9048;SDS011;4559;47.252;9.592;2022-11-15T07:42:08;4.90;;;2.70;;
9048;SDS011;4559;47.252;9.592;2022-11-15T07:44:52;6.03;;;3.00;;
9048;SDS011;4559;47.252;9.592;2022-11-15T07:47:18;7.50;;;3.60;;
9048;SDS011;4559;47.252;9.592;2022-11-15T07:49:43;7.05;;;4.63;;
9048;SDS011;4559;47.252;9.592;2022-11-15T07:52:11;23.05;;;10.77;;
9048;SDS011;4559;47.252;9.592;2022-11-15T07:54:37;12.98;;;6.40;;
9048;SDS011;4559;47.252;9.592;2022-11-15T07:57:02;6.90;;;4.03;;
9048;SDS011;4559;47.252;9.592;2022-11-15T07:59:28;5.57;;;3.58;;
9048;SDS011;4559;47.252;9.592;2022-11-15T08:01:54;3.83;;;3.15;;
9048;SDS011;4559;47.252;9.592;2022-11-15T08:04:20;4.53;;;2.78;;
9048;SDS011;4559;47.252;9.592;2022-11-15T08:06:45;4.87;;;2.90;;
9048;SDS011;4559;47.252;9.592;2022-11-15T08:09:11;4.57;;;2.60;;
9048;SDS011;4559;47.252;9.592;2022-11-15T08:11:36;2.50;;;2.30;;
9048;SDS011;4559;47.252;9.592;2022-11-15T08:14:02;5.18;;;2.30;;
9048;SDS011;4559;47.252;9.592;2022-11-15T08:16:28;8.27;;;2.40;;
9048;SDS011;4559;47.252;9.592;2022-11-15T08:18:54;5.90;;;2.10;;
9048;SDS011;4559;47.252;9.592;2022-11-15T08:21:20;3.08;;;2.22;;
9048;SDS011;4559;47.252;9.592;2022-11-15T08:23:46;4.25;;;2.30;;
9048;SDS011;4559;47.252;9.592;2022-11-15T08:26:12;5.80;;;2.65;;
9048;SDS011;4559;47.252;9.592;2022-11-15T08:28:38;4.63;;;2.38;;
9048;SDS011;4559;47.252;9.592;2022-11-15T08:31:03;2.50;;;2.30;;
9048;SDS011;4559;47.252;9.592;2022-11-15T08:33:30;4.07;;;2.75;;
9048;SDS011;4559;47.252;9.592;2022-11-15T08:35:56;3.53;;;2.90;;
9048;SDS011;4559;47.252;9.592;2022-11-15T08:38:23;3.40;;;2.95;;
9048;SDS011;4559;47.252;9.592;2022-11-15T08:40:50;4.32;;;3.40;;
9048;SDS011;4559;47.252;9.592;2022-11-15T08:43:17;3.25;;;2.95;;
9048;SDS011;4559;47.252;9.592;2022-11-15T08:45:43;3.50;;;2.92;;
9048;SDS011;4559;47.252;9.592;2022-11-15T08:48:09;3.08;;;2.78;;
9048;SDS011;4559;47.252;9.592;2022-11-15T08:50:35;2.57;;;2.37;;
9048;SDS011;4559;47.252;9.592;2022-11-15T08:53:04;2.63;;;2.20;;
9048;SDS011;4559;47.252;9.592;2022-11-15T08:55:35;2.65;;;2.22;;
9048;SDS011;4559;47.252;9.592;2022-11-15T08:58:02;2.70;;;1.95;;
9048;SDS011;4559;47.252;9.592;2022-11-15T09:00:27;3.78;;;1.73;;
9048;SDS011;4559;47.252;9.592;2022-11-15T09:02:53;2.50;;;1.80;;
9048;SDS011;4559;47.252;9.592;2022-11-15T09:05:19;3.37;;;1.90;;
9048;SDS011;4559;47.252;9.592;2022-11-15T09:07:44;3.33;;;2.00;;
9048;SDS011;4559;47.252;9.592;2022-11-15T09:10:10;3.92;;;2.60;;
9048;SDS011;4559;47.252;9.592;2022-11-15T09:12:35;5.82;;;3.05;;
9048;SDS011;4559;47.252;9.592;2022-11-15T09:15:02;7.18;;;3.35;;
9048;SDS011;4559;47.252;9.592;2022-11-15T09:17:28;7.82;;;3.60;;
9048;SDS011;4559;47.252;9.592;2022-11-15T09:19:53;5.80;;;3.60;;
9048;SDS011;4559;47.252;9.592;2022-11-15T09:22:19;3.45;;;2.78;;
9048;SDS011;4559;47.252;9.592;2022-11-15T09:24:44;7.20;;;3.80;;
9048;SDS011;4559;47.252;9.592;2022-11-15T09:27:10;5.93;;;3.83;;
9048;SDS011;4559;47.252;9.592;2022-11-15T09:29:36;5.78;;;3.33;;
9048;SDS011;4559;47.252;9.592;2022-11-15T09:32:02;3.40;;;2.60;;
9048;SDS011;4559;47.252;9.592;2022-11-15T09:34:27;3.55;;;2.50;;
9048;SDS011;4559;47.252;9.592;2022-11-15T09:36:53;12.10;;;5.65;;
9048;SDS011;4559;47.252;9.592;2022-11-15T09:39:18;22.40;;;9.80;;
9048;SDS011;4559;47.252;9.592;2022-11-15T09:41:58;7.10;;;4.60;;
9048;SDS011;4559;47.252;9.592;2022-11-15T09:51:02;7.65;;;4.70;;
9048;SDS011;4559;47.252;9.592;2022-11-15T09:53:34;3.75;;;3.08;;
9048;SDS011;4559;47.252;9.592;2022-11-15T09:56:03;6.47;;;3.50;;
9048;SDS011;4559;47.252;9.592;2022-11-15T09:58:47;6.35;;;3.40;;
9048;SDS011;4559;47.252;9.592;2022-11-15T10:01:22;4.50;;;3.20;;
9048;SDS011;4559;47.252;9.592;2022-11-15T10:04:14;3.25;;;2.20;;
9048;SDS011;4559;47.252;9.592;2022-11-15T10:06:42;3.97;;;1.90;;
9048;SDS011;4559;47.252;9.592;2022-11-15T10:09:24;3.40;;;2.07;;
9048;SDS011;4559;47.252;9.592;2022-11-15T10:11:55;10.50;;;6.40;;
9048;SDS011;4559;47.252;9.592;2022-11-15T10:14:22;12.25;;;6.03;;
9048;SDS011;4559;47.252;9.592;2022-11-15T10:17:02;4.18;;;2.53;;
9048;SDS011;4559;47.252;9.592;2022-11-15T10:24:47;3.38;;;1.80;;
9048;SDS011;4559;47.252;9.592;2022-11-15T10:27:16;4.47;;;1.98;;
9048;SDS011;4559;47.252;9.592;2022-11-15T10:29:47;3.00;;;2.28;;
9048;SDS011;4559;47.252;9.592;2022-11-15T10:32:14;3.15;;;2.25;;
9048;SDS011;4559;47.252;9.592;2022-11-15T10:34:42;5.20;;;1.90;;
9048;SDS011;4559;47.252;9.592;2022-11-15T10:37:08;1.80;;;1.63;;
9048;SDS011;4559;47.252;9.592;2022-11-15T10:39:34;4.18;;;2.80;;
9048;SDS011;4559;47.252;9.592;2022-11-15T10:44:54;2.30;;;2.10;;
9048;SDS011;4559;47.252;9.592;2022-11-15T10:47:29;2.15;;;1.90;;
9048;SDS011;4559;47.252;9.592;2022-11-15T10:49:57;2.53;;;1.85;;
9048;SDS011;4559;47.252;9.592;2022-11-15T10:52:25;3.00;;;2.05;;
9048;SDS011;4559;47.252;9.592;2022-11-15T10:55:02;5.25;;;2.50;;
9048;SDS011;4559;47.252;9.592;2022-11-15T10:57:50;6.68;;;2.53;;
9048;SDS011;4559;47.252;9.592;2022-11-15T11:03:01;17.90;;;7.55;;
9048;SDS011;4559;47.252;9.592;2022-11-15T11:05:31;4.53;;;2.72;;
9048;SDS011;4559;47.252;9.592;2022-11-15T11:08:19;8.13;;;3.08;;
9048;SDS011;4559;47.252;9.592;2022-11-15T11:10:52;5.38;;;3.40;;
9048;SDS011;4559;47.252;9.592;2022-11-15T11:15:53;4.25;;;2.63;;
9048;SDS011;4559;47.252;9.592;2022-11-15T11:18:28;3.75;;;3.10;;
9048;SDS011;4559;47.252;9.592;2022-11-15T11:20:58;2.88;;;2.58;;
9048;SDS011;4559;47.252;9.592;2022-11-15T11:26:29;4.10;;;2.90;;
9048;SDS011;4559;47.252;9.592;2022-11-15T11:29:02;3.55;;;2.65;;
9048;SDS011;4559;47.252;9.592;2022-11-15T11:31:37;3.50;;;2.75;;
9048;SDS011;4559;47.252;9.592;2022-11-15T11:39:31;5.38;;;3.40;;
9048;SDS011;4559;47.252;9.592;2022-11-15T11:42:07;2.60;;;2.27;;
9048;SDS011;4559;47.252;9.592;2022-11-15T11:47:30;3.65;;;2.65;;
9048;SDS011;4559;47.252;9.592;2022-11-15T11:50:00;2.67;;;2.40;;
9048;SDS011;4559;47.252;9.592;2022-11-15T11:52:33;3.17;;;2.42;;
9048;SDS011;4559;47.252;9.592;2022-11-15T11:55:02;3.10;;;2.80;;
9048;SDS011;4559;47.252;9.592;2022-11-15T11:57:32;4.75;;;3.00;;
9048;SDS011;4559;47.252;9.592;2022-11-15T12:00:03;5.90;;;3.67;;
9048;SDS011;4559;47.252;9.592;2022-11-15T12:02:31;18.55;;;9.48;;
9048;SDS011;4559;47.252;9.592;2022-11-15T12:05:17;6.70;;;4.07;;
9048;SDS011;4559;47.252;9.592;2022-11-15T12:07:45;4.50;;;3.28;;
9048;SDS011;4559;47.252;9.592;2022-11-15T12:12:41;3.85;;;3.33;;
9048;SDS011;4559;47.252;9.592;2022-11-15T12:15:15;4.78;;;3.28;;
9048;SDS011;4559;47.252;9.592;2022-11-15T12:17:41;4.75;;;3.58;;
9048;SDS011;4559;47.252;9.592;2022-11-15T12:20:17;4.63;;;3.70;;
9048;SDS011;4559;47.252;9.592;2022-11-15T12:22:49;5.43;;;3.88;;
9048;SDS011;4559;47.252;9.592;2022-11-15T12:25:19;4.72;;;3.70;;
9048;SDS011;4559;47.252;9.592;2022-11-15T12:31:32;3.95;;;3.45;;
9048;SDS011;4559;47.252;9.592;2022-11-15T12:33:42;4.05;;;3.40;;
9048;SDS011;4559;47.252;9.592;2022-11-15T12:36:10;6.70;;;3.30;;
9048;SDS011;4559;47.252;9.592;2022-11-15T12:41:29;6.65;;;4.32;;
9048;SDS011;4559;47.252;9.592;2022-11-15T12:43:56;9.18;;;4.00;;
9048;SDS011;4559;47.252;9.592;2022-11-15T12:48:57;5.70;;;4.75;;
9048;SDS011;4559;47.252;9.592;2022-11-15T13:02:30;3.70;;;3.25;;
9048;SDS011;4559;47.252;9.592;2022-11-15T13:30:36;4.75;;;3.90;;
9048;SDS011;4559;47.252;9.592;2022-11-15T13:33:09;5.22;;;3.72;;
9048;SDS011;4559;47.252;9.592;2022-11-15T13:35:39;5.70;;;3.80;;
9048;SDS011;4559;47.252;9.592;2022-11-15T13:38:06;4.85;;;3.60;;
9048;SDS011;4559;47.252;9.592;2022-11-15T13:40:35;5.18;;;3.85;;
9048;SDS011;4559;47.252;9.592;2022-11-15T13:48:35;6.65;;;4.28;;
9048;SDS011;4559;47.252;9.592;2022-11-15T13:51:06;5.65;;;3.80;;
9048;SDS011;4559;47.252;9.592;2022-11-15T13:53:33;5.03;;;3.95;;
9048;SDS011;4559;47.252;9.592;2022-11-15T13:56:01;5.40;;;3.80;;
9048;SDS011;4559;47.252;9.592;2022-11-15T13:58:28;6.05;;;3.70;;
9048;SDS011;4559;47.252;9.592;2022-11-15T14:00:59;4.78;;;3.40;;
9048;SDS011;4559;47.252;9.592;2022-11-15T14:03:26;4.38;;;3.47;;
9048;SDS011;4559;47.252;9.592;2022-11-15T14:06:02;5.60;;;3.78;;
9048;SDS011;4559;47.252;9.592;2022-11-15T14:08:29;4.07;;;3.08;;
9048;SDS011;4559;47.252;9.592;2022-11-15T14:13:33;5.38;;;3.67;;
9048;SDS011;4559;47.252;9.592;2022-11-15T14:16:12;4.85;;;3.28;;
9048;SDS011;4559;47.252;9.592;2022-11-15T14:18:48;3.70;;;3.20;;
9048;SDS011;4559;47.252;9.592;2022-11-15T14:21:14;4.30;;;3.33;;
9048;SDS011;4559;47.252;9.592;2022-11-15T14:23:40;3.72;;;3.08;;
9048;SDS011;4559;47.252;9.592;2022-11-15T14:26:10;5.03;;;3.17;;
9048;SDS011;4559;47.252;9.592;2022-11-15T14:28:37;3.00;;;2.65;;
9048;SDS011;4559;47.252;9.592;2022-11-15T14:31:09;4.17;;;3.40;;
9048;SDS011;4559;47.252;9.592;2022-11-15T14:33:36;4.03;;;2.90;;
9048;SDS011;4559;47.252;9.592;2022-11-15T14:36:15;6.20;;;3.65;;
9048;SDS011;4559;47.252;9.592;2022-11-15T14:38:42;4.68;;;4.15;;
9048;SDS011;4559;47.252;9.592;2022-11-15T14:41:17;6.22;;;3.92;;
9048;SDS011;4559;47.252;9.592;2022-11-15T14:43:44;6.10;;;3.87;;
9048;SDS011;4559;47.252;9.592;2022-11-15T14:46:09;7.27;;;4.67;;
9048;SDS011;4559;47.252;9.592;2022-11-15T14:48:35;6.90;;;3.70;;
9048;SDS011;4559;47.252;9.592;2022-11-15T14:51:02;6.43;;;4.30;;
9048;SDS011;4559;47.252;9.592;2022-11-15T14:53:28;12.25;;;6.22;;
9048;SDS011;4559;47.252;9.592;2022-11-15T14:55:54;13.98;;;7.75;;
9048;SDS011;4559;47.252;9.592;2022-11-15T14:58:20;8.65;;;5.93;;
9048;SDS011;4559;47.252;9.592;2022-11-15T15:00:46;7.32;;;4.85;;
9048;SDS011;4559;47.252;9.592;2022-11-15T15:03:12;7.35;;;4.63;;
9048;SDS011;4559;47.252;9.592;2022-11-15T15:05:39;9.82;;;5.88;;
9048;SDS011;4559;47.252;9.592;2022-11-15T15:08:05;7.75;;;4.15;;
9048;SDS011;4559;47.252;9.592;2022-11-15T15:10:36;6.22;;;3.97;;
9048;SDS011;4559;47.252;9.592;2022-11-15T15:13:02;5.03;;;3.70;;
9048;SDS011;4559;47.252;9.592;2022-11-15T15:15:32;5.45;;;3.63;;
9048;SDS011;4559;47.252;9.592;2022-11-15T15:17:58;5.28;;;3.67;;
9048;SDS011;4559;47.252;9.592;2022-11-15T15:20:24;5.00;;;3.87;;
9048;SDS011;4559;47.252;9.592;2022-11-15T15:22:50;5.18;;;3.55;;
9048;SDS011;4559;47.252;9.592;2022-11-15T15:25:21;5.75;;;3.90;;
9048;SDS011;4559;47.252;9.592;2022-11-15T15:27:48;5.90;;;4.47;;
9048;SDS011;4559;47.252;9.592;2022-11-15T15:30:14;8.70;;;4.40;;
9048;SDS011;4559;47.252;9.592;2022-11-15T15:32:40;5.32;;;4.15;;
9048;SDS011;4559;47.252;9.592;2022-11-15T15:35:07;5.18;;;3.80;;
9048;SDS011;4559;47.252;9.592;2022-11-15T15:37:35;5.93;;;4.45;;
9048;SDS011;4559;47.252;9.592;2022-11-15T15:40:02;16.70;;;9.57;;
9048;SDS011;4559;47.252;9.592;2022-11-15T15:42:28;8.20;;;4.65;;
9048;SDS011;4559;47.252;9.592;2022-11-15T15:44:53;4.47;;;3.57;;
9048;SDS011;4559;47.252;9.592;2022-11-15T15:47:20;4.87;;;3.43;;
9048;SDS011;4559;47.252;9.592;2022-11-15T15:49:47;6.25;;;3.70;;
9048;SDS011;4559;47.252;9.592;2022-11-15T15:52:12;4.07;;;3.25;;
9048;SDS011;4559;47.252;9.592;2022-11-15T15:54:39;4.30;;;3.28;;
9048;SDS011;4559;47.252;9.592;2022-11-15T15:57:06;6.50;;;3.83;;
9048;SDS011;4559;47.252;9.592;2022-11-15T15:59:32;4.67;;;3.70;;
9048;SDS011;4559;47.252;9.592;2022-11-15T16:01:58;5.70;;;4.10;;
9048;SDS011;4559;47.252;9.592;2022-11-15T16:04:24;5.60;;;3.60;;
9048;SDS011;4559;47.252;9.592;2022-11-15T16:06:51;5.32;;;3.58;;
9048;SDS011;4559;47.252;9.592;2022-11-15T16:09:19;6.50;;;3.85;;
9048;SDS011;4559;47.252;9.592;2022-11-15T16:12:08;6.40;;;4.20;;
9048;SDS011;4559;47.252;9.592;2022-11-15T16:14:34;6.97;;;5.32;;
9048;SDS011;4559;47.252;9.592;2022-11-15T16:17:00;7.05;;;4.72;;
9048;SDS011;4559;47.252;9.592;2022-11-15T16:19:26;5.35;;;4.13;;
9048;SDS011;4559;47.252;9.592;2022-11-15T16:21:52;7.03;;;4.38;;
9048;SDS011;4559;47.252;9.592;2022-11-15T16:24:19;5.80;;;3.97;;
9048;SDS011;4559;47.252;9.592;2022-11-15T16:26:45;5.77;;;3.63;;
9048;SDS011;4559;47.252;9.592;2022-11-15T16:29:12;5.60;;;3.95;;
9048;SDS011;4559;47.252;9.592;2022-11-15T16:31:38;8.85;;;5.53;;
9048;SDS011;4559;47.252;9.592;2022-11-15T16:34:04;10.52;;;7.97;;
9048;SDS011;4559;47.252;9.592;2022-11-15T16:36:32;9.82;;;6.78;;
9048;SDS011;4559;47.252;9.592;2022-11-15T16:38:58;8.20;;;5.72;;
9048;SDS011;4559;47.252;9.592;2022-11-15T16:41:25;8.32;;;4.88;;
9048;SDS011;4559;47.252;9.592;2022-11-15T16:43:51;9.60;;;5.78;;
9048;SDS011;4559;47.252;9.592;2022-11-15T16:46:18;6.72;;;4.55;;
9048;SDS011;4559;47.252;9.592;2022-11-15T16:48:44;8.98;;;5.05;;
9048;SDS011;4559;47.252;9.592;2022-11-15T16:51:10;8.63;;;5.45;;
9048;SDS011;4559;47.252;9.592;2022-11-15T16:53:36;10.85;;;6.20;;
9048;SDS011;4559;47.252;9.592;2022-11-15T16:56:03;10.25;;;6.53;;
9048;SDS011;4559;47.252;9.592;2022-11-15T16:58:29;11.20;;;5.90;;
9048;SDS011;4559;47.252;9.592;2022-11-15T17:00:57;9.73;;;6.35;;
9048;SDS011;4559;47.252;9.592;2022-11-15T17:03:23;10.55;;;6.38;;
9048;SDS011;4559;47.252;9.592;2022-11-15T17:05:49;10.65;;;6.38;;
9048;SDS011;4559;47.252;9.592;2022-11-15T17:08:15;9.70;;;6.00;;
9048;SDS011;4559;47.252;9.592;2022-11-15T17:10:41;9.23;;;6.23;;
9048;SDS011;4559;47.252;9.592;2022-11-15T17:13:11;11.98;;;7.63;;
9048;SDS011;4559;47.252;9.592;2022-11-15T17:15:37;10.93;;;7.20;;
9048;SDS011;4559;47.252;9.592;2022-11-15T17:18:04;13.13;;;8.60;;
9048;SDS011;4559;47.252;9.592;2022-11-15T17:20:30;20.40;;;11.48;;
9048;SDS011;4559;47.252;9.592;2022-11-15T17:22:56;11.90;;;7.38;;